createdAt,value
2022-10-22T00:00:15.058Z,31.13
2022-10-22T00:03:19.050Z,32.25
2022-10-22T00:06:22.440Z,33.95
2022-10-22T00:09:26.630Z,35.10
2022-10-22T00:12:30.322Z,35.80
2022-10-22T00:15:34.576Z,35.37
2022-10-22T00:18:38.433Z,41.33
2022-10-22T00:21:42.310Z,33.80
2022-10-22T00:24:45.901Z,34.95
2022-10-22T00:27:49.587Z,35.43
2022-10-22T00:30:58.312Z,36.97
2022-10-22T00:34:02.248Z,36.55
2022-10-22T00:37:06.429Z,36.92
2022-10-22T00:40:10.905Z,33.13
2022-10-22T00:43:19.211Z,38.15
2022-10-22T00:46:23.198Z,41.08
2022-10-22T00:49:27.209Z,34.65
2022-10-22T00:52:30.793Z,32.53
2022-10-22T00:55:35.645Z,33.67
2022-10-22T00:58:43.830Z,33.30
2022-10-22T01:01:48.307Z,26.75
2022-10-22T01:04:52.020Z,30.42
2022-10-22T01:07:56.414Z,30.40
2022-10-22T01:11:21.379Z,33.88
2022-10-22T01:14:37.102Z,38.20
2022-10-22T01:17:58.626Z,35.08
2022-10-22T01:21:11.655Z,37.47
2022-10-22T01:24:29.801Z,33.83
2022-10-22T01:28:10.445Z,33.78
2022-10-22T01:31:15.427Z,33.90
2022-10-22T01:34:20.562Z,32.97
2022-10-22T01:37:26.751Z,33.43
2022-10-22T01:40:30.240Z,35.75
2022-10-22T01:43:34.297Z,34.88
2022-10-22T01:46:40.024Z,39.05
2022-10-22T01:50:30.527Z,41.03
2022-10-22T01:53:57.329Z,40.73
2022-10-22T01:57:14.683Z,38.47
2022-10-22T02:00:20.123Z,37.65
2022-10-22T02:03:32.205Z,39.83
2022-10-22T02:06:39.679Z,39.15
2022-10-22T02:09:44.126Z,35.23
2022-10-22T02:12:52.918Z,34.45
2022-10-22T02:15:57.687Z,33.53
2022-10-22T02:19:14.964Z,34.20
2022-10-22T02:22:18.794Z,32.40
2022-10-22T02:25:23.898Z,36.70
2022-10-22T02:28:52.301Z,37.13
2022-10-22T02:31:58.942Z,31.15
2022-10-22T02:35:03.875Z,30.00
2022-10-22T02:38:08.775Z,30.45
2022-10-22T02:41:12.340Z,30.87
2022-10-22T02:44:16.373Z,30.63
2022-10-22T02:47:20.171Z,30.02
2022-10-22T02:50:24.152Z,32.30
2022-10-22T02:53:28.109Z,30.90
2022-10-22T02:56:32.047Z,32.30
2022-10-22T02:59:35.602Z,31.87
2022-10-22T03:02:39.894Z,32.55
2022-10-22T03:05:42.691Z,34.53
2022-10-22T03:08:46.603Z,30.92
2022-10-22T03:11:50.170Z,25.13
2022-10-22T03:14:53.045Z,26.15
2022-10-22T03:17:56.319Z,26.08
2022-10-22T03:21:29.995Z,26.63
2022-10-22T03:24:39.026Z,26.80
2022-10-22T03:27:43.705Z,29.03
2022-10-22T03:30:48.145Z,26.43
2022-10-22T03:33:51.731Z,26.50
2022-10-22T03:36:56.176Z,26.33
2022-10-22T03:39:59.899Z,26.02
2022-10-22T03:43:03.957Z,24.17
2022-10-22T03:46:08.106Z,17.37
2022-10-22T03:49:11.802Z,16.95
2022-10-22T03:52:16.318Z,19.33
2022-10-22T03:55:20.048Z,20.88
2022-10-22T03:58:24.064Z,18.90
2022-10-22T04:01:28.688Z,17.97
2022-10-22T04:04:33.153Z,22.70
2022-10-22T04:07:36.482Z,17.42
2022-10-22T04:10:40.928Z,20.13
2022-10-22T04:13:45.326Z,16.47
2022-10-22T04:16:49.279Z,16.30
2022-10-22T04:19:52.856Z,16.65
2022-10-22T04:22:56.614Z,15.77
2022-10-22T04:26:01.748Z,15.43
2022-10-22T04:29:10.556Z,16.33
2022-10-22T04:32:16.657Z,11.40
2022-10-22T04:35:20.725Z,13.18
2022-10-22T04:38:24.493Z,12.60
2022-10-22T04:41:33.799Z,11.25
2022-10-22T04:44:37.283Z,8.77
2022-10-22T04:47:41.341Z,8.75
2022-10-22T04:50:44.794Z,11.40
2022-10-22T04:53:48.506Z,9.27
2022-10-22T04:56:51.643Z,10.07
2022-10-22T04:59:55.632Z,10.20
2022-10-22T05:02:58.537Z,11.80
2022-10-22T05:06:03.320Z,10.20
2022-10-22T05:09:09.632Z,11.25
2022-10-22T05:12:13.681Z,12.18
2022-10-22T05:15:17.337Z,12.37
2022-10-22T05:18:22.574Z,12.13
2022-10-22T05:21:26.908Z,13.98
2022-10-22T05:24:32.937Z,12.95
2022-10-22T05:27:35.849Z,14.82
2022-10-22T05:30:39.054Z,13.40
2022-10-22T05:33:43.610Z,12.87
2022-10-22T05:36:47.702Z,13.25
2022-10-22T05:40:01.706Z,14.85
2022-10-22T05:43:15.612Z,14.02
2022-10-22T05:46:23.064Z,14.40
2022-10-22T05:49:27.239Z,14.10
2022-10-22T05:52:30.845Z,13.95
2022-10-22T05:55:39.698Z,14.25
2022-10-22T05:58:45.039Z,15.02
2022-10-22T06:01:48.999Z,15.20
2022-10-22T06:04:52.581Z,32.57
2022-10-22T06:07:58.600Z,20.13
2022-10-22T06:11:02.231Z,18.67
2022-10-22T06:14:06.187Z,18.42
2022-10-22T06:17:10.248Z,16.43
2022-10-22T06:20:15.134Z,17.13
2022-10-22T06:23:18.321Z,17.80
2022-10-22T06:26:21.907Z,16.85
2022-10-22T06:29:25.655Z,16.25
2022-10-22T06:32:29.555Z,16.40
2022-10-22T06:35:33.941Z,22.00
2022-10-22T06:38:37.536Z,21.38
2022-10-22T06:41:41.259Z,22.40
2022-10-22T06:44:45.171Z,21.60
2022-10-22T06:47:49.515Z,21.73
2022-10-22T06:50:53.268Z,21.27
2022-10-22T06:53:57.927Z,20.30
2022-10-22T06:57:01.794Z,20.85
2022-10-22T07:00:08.052Z,23.05
2022-10-22T07:03:14.797Z,33.47
2022-10-22T07:06:19.386Z,36.97
2022-10-22T07:09:23.300Z,35.10
2022-10-22T07:12:27.347Z,34.00
2022-10-22T07:15:31.247Z,32.92
2022-10-22T07:18:35.786Z,31.03
2022-10-22T07:21:39.965Z,25.03
2022-10-22T07:24:43.596Z,26.83
2022-10-22T07:27:47.164Z,22.45
2022-10-22T07:30:51.273Z,20.40
2022-10-22T07:33:54.748Z,19.87
2022-10-22T07:36:58.399Z,19.67
2022-10-22T07:40:03.869Z,23.13
2022-10-22T07:43:07.550Z,24.48
2022-10-22T07:46:12.097Z,23.17
2022-10-22T07:49:15.630Z,26.17
2022-10-22T07:52:19.525Z,28.83
2022-10-22T07:55:23.183Z,27.00
2022-10-22T07:58:27.578Z,25.27
2022-10-22T08:01:31.256Z,28.08
2022-10-22T08:04:35.231Z,34.50
2022-10-22T08:07:38.817Z,32.43
2022-10-22T08:10:43.154Z,22.75
2022-10-22T08:13:46.306Z,26.33
2022-10-22T08:16:50.059Z,25.05
2022-10-22T08:19:53.566Z,21.47
2022-10-22T08:22:57.543Z,25.30
2022-10-22T08:26:00.912Z,22.92
2022-10-22T08:29:05.042Z,26.40
2022-10-22T08:32:08.697Z,26.95
2022-10-22T08:35:14.214Z,30.87
2022-10-22T08:38:21.356Z,27.43
2022-10-22T08:41:25.488Z,23.42
2022-10-22T08:44:44.314Z,28.85
2022-10-22T08:48:06.147Z,29.88
2022-10-22T08:51:14.806Z,28.90
2022-10-22T08:54:24.218Z,32.17
2022-10-22T08:57:48.732Z,29.85
2022-10-22T09:01:02.586Z,30.20
2022-10-22T09:04:17.853Z,30.77
2022-10-22T09:07:21.910Z,29.40
2022-10-22T09:10:33.557Z,27.92
2022-10-22T09:13:37.745Z,28.50
2022-10-22T09:17:06.769Z,28.50
2022-10-22T09:20:18.707Z,30.92
2022-10-22T09:23:52.657Z,88.13
2022-10-22T09:26:58.484Z,81.60
2022-10-22T09:30:02.434Z,80.07
2022-10-22T09:33:14.840Z,70.40
2022-10-22T09:36:22.510Z,51.38
2022-10-22T09:39:34.313Z,45.97
2022-10-22T09:42:38.980Z,28.42
2022-10-22T09:45:44.887Z,21.20
2022-10-22T09:49:12.348Z,24.25
2022-10-22T09:52:31.983Z,22.90
2022-10-22T09:55:35.548Z,29.73
2022-10-22T09:58:47.190Z,38.55
2022-10-22T10:02:08.365Z,44.90
2022-10-22T10:05:27.670Z,27.45
2022-10-22T10:08:31.820Z,26.98
2022-10-22T10:11:47.285Z,34.27
2022-10-22T10:15:07.540Z,29.70
2022-10-22T10:18:39.865Z,30.27
2022-10-22T10:22:00.960Z,33.58
2022-10-22T10:25:32.074Z,31.85
2022-10-22T10:28:39.874Z,33.57
2022-10-22T10:32:13.779Z,39.17
2022-10-22T10:35:47.322Z,46.60
2022-10-22T10:38:50.587Z,61.88
2022-10-22T10:42:11.743Z,74.53
2022-10-22T10:45:19.005Z,58.17
2022-10-22T10:48:34.270Z,50.97
2022-10-22T10:52:30.907Z,44.35
2022-10-22T10:55:48.730Z,54.58
2022-10-22T10:59:06.273Z,85.97
2022-10-22T11:02:45.989Z,112.87
2022-10-22T11:06:19.449Z,136.30
2022-10-22T11:09:30.875Z,136.57
2022-10-22T11:12:43.421Z,125.22
2022-10-22T11:15:57.280Z,82.50
2022-10-22T11:19:22.556Z,65.23
2022-10-22T11:22:55.001Z,53.85
2022-10-22T11:26:11.928Z,69.47
2022-10-22T11:29:30.649Z,75.47
2022-10-22T11:32:37.252Z,76.93
2022-10-22T11:35:44.246Z,79.17
2022-10-22T11:38:48.244Z,83.55
2022-10-22T11:41:53.918Z,87.53
2022-10-22T11:45:03.624Z,88.07
2022-10-22T11:48:19.438Z,97.47
2022-10-22T11:51:49.082Z,113.80
2022-10-22T11:54:58.387Z,99.00
2022-10-22T11:58:03.599Z,84.25
2022-10-22T12:01:10.106Z,84.13
2022-10-22T12:04:17.819Z,73.68
2022-10-22T12:07:59.357Z,66.23
2022-10-22T12:11:11.116Z,67.30
2022-10-22T12:14:23.971Z,67.45
2022-10-22T12:17:30.552Z,59.83
2022-10-22T12:20:33.795Z,50.55
2022-10-22T12:23:38.295Z,43.77
2022-10-22T12:26:41.949Z,50.63
2022-10-22T12:29:45.957Z,55.72
2022-10-22T12:32:51.973Z,58.85
2022-10-22T12:35:58.125Z,58.45
2022-10-22T12:39:04.754Z,63.63
2022-10-22T12:42:13.147Z,67.10
2022-10-22T12:45:16.110Z,82.82
2022-10-22T12:48:22.558Z,77.43
2022-10-22T12:51:26.591Z,73.93
2022-10-22T12:54:33.903Z,79.03
2022-10-22T12:57:36.792Z,71.97
2022-10-22T13:00:42.192Z,79.30
2022-10-22T13:03:52.172Z,106.90
2022-10-22T13:07:18.344Z,64.30
2022-10-22T13:10:32.528Z,65.80
2022-10-22T13:13:46.078Z,85.80
2022-10-22T13:17:09.291Z,134.25
2022-10-22T13:20:24.155Z,184.50
2022-10-22T13:23:29.261Z,111.82
2022-10-22T13:26:36.195Z,95.80
2022-10-22T13:29:42.457Z,79.07
2022-10-22T13:32:51.994Z,74.25
2022-10-22T13:35:57.484Z,69.25
2022-10-22T13:39:01.257Z,65.18
2022-10-22T13:42:04.473Z,56.30
2022-10-22T13:45:08.812Z,54.83
2022-10-22T13:48:22.455Z,46.60
2022-10-22T13:51:38.220Z,43.92
2022-10-22T13:54:41.854Z,47.27
2022-10-22T13:57:46.440Z,57.30
2022-10-22T14:00:58.524Z,54.20
2022-10-22T14:04:04.805Z,53.78
2022-10-22T14:07:16.236Z,57.57
2022-10-22T14:10:22.160Z,65.68
2022-10-22T14:13:27.239Z,59.17
2022-10-22T14:16:33.348Z,45.00
2022-10-22T14:19:37.020Z,39.47
2022-10-22T14:22:40.975Z,45.80
2022-10-22T14:25:45.180Z,45.58
2022-10-22T14:29:08.842Z,42.53
2022-10-22T14:32:20.902Z,29.92
2022-10-22T14:35:24.869Z,32.83
2022-10-22T14:38:29.414Z,29.48
2022-10-22T14:41:33.465Z,29.80
2022-10-22T14:44:36.343Z,25.65
2022-10-22T14:47:39.682Z,29.13
2022-10-22T14:50:44.847Z,26.10
2022-10-22T14:53:49.032Z,24.35
2022-10-22T14:56:52.168Z,26.27
2022-10-22T14:59:55.929Z,25.10
2022-10-22T15:03:03.335Z,23.83
2022-10-22T15:06:08.698Z,21.25
2022-10-22T15:09:12.513Z,23.55
2022-10-22T15:12:16.698Z,48.10
2022-10-22T15:15:22.699Z,45.25
2022-10-22T15:18:27.836Z,39.05
2022-10-22T15:21:31.494Z,38.93
2022-10-22T15:24:34.985Z,39.22
2022-10-22T15:27:38.278Z,44.38
2022-10-22T15:30:42.262Z,37.10
2022-10-22T15:33:45.820Z,38.50
2022-10-22T15:36:50.266Z,33.22
2022-10-22T15:39:54.050Z,45.08
2022-10-22T15:42:58.385Z,37.60
2022-10-22T15:46:15.345Z,42.23
2022-10-22T15:49:20.158Z,40.88
2022-10-22T15:52:24.181Z,37.00
2022-10-22T15:55:28.144Z,52.47
2022-10-22T15:58:31.952Z,77.67
2022-10-22T16:01:36.665Z,67.97
2022-10-22T16:04:40.379Z,61.13
2022-10-22T16:07:44.512Z,56.80
2022-10-22T16:10:49.051Z,54.53
2022-10-22T16:13:57.691Z,54.50
2022-10-22T16:17:02.162Z,50.17
2022-10-22T16:20:06.657Z,45.92
2022-10-22T16:23:10.143Z,39.83
2022-10-22T16:26:15.582Z,36.15
2022-10-22T16:29:19.562Z,42.42
2022-10-22T16:32:24.098Z,34.22
2022-10-22T16:35:27.817Z,38.40
2022-10-22T16:38:31.358Z,64.47
2022-10-22T16:41:36.061Z,63.90
2022-10-22T16:44:39.703Z,65.00
2022-10-22T16:47:43.790Z,50.97
2022-10-22T16:50:47.697Z,49.88
2022-10-22T16:53:56.431Z,64.60
2022-10-22T16:56:59.742Z,53.00
2022-10-22T17:00:05.648Z,88.30
2022-10-22T17:03:13.181Z,79.03
2022-10-22T17:06:17.071Z,76.35
2022-10-22T17:09:21.158Z,60.33
2022-10-22T17:12:24.923Z,108.07
2022-10-22T17:15:28.974Z,133.82
2022-10-22T17:18:33.514Z,110.20
2022-10-22T17:21:37.469Z,121.85
2022-10-22T17:24:44.426Z,108.15
2022-10-22T17:27:48.570Z,107.47
2022-10-22T17:30:51.924Z,107.55
2022-10-22T17:33:57.602Z,101.70
2022-10-22T17:37:00.953Z,100.78
2022-10-22T17:40:06.518Z,91.60
2022-10-22T17:43:09.996Z,94.40
2022-10-22T17:46:23.098Z,93.73
2022-10-22T17:49:26.995Z,100.18
2022-10-22T17:52:30.736Z,88.82
2022-10-22T17:55:35.414Z,97.27
2022-10-22T17:58:39.364Z,89.13
2022-10-22T18:01:46.100Z,88.30
2022-10-22T18:04:53.925Z,84.93
2022-10-22T18:07:57.438Z,80.18
2022-10-22T18:11:01.411Z,75.53
2022-10-22T18:14:05.555Z,71.03
2022-10-22T18:17:09.673Z,82.97
2022-10-22T18:20:13.814Z,80.57
2022-10-22T18:23:17.753Z,104.03
2022-10-22T18:26:25.880Z,111.75
2022-10-22T18:29:30.863Z,123.57
2022-10-22T18:32:34.882Z,115.78
2022-10-22T18:35:38.822Z,112.13
2022-10-22T18:38:42.346Z,108.60
2022-10-22T18:41:46.368Z,113.30
2022-10-22T18:44:52.651Z,105.97
2022-10-22T18:47:56.701Z,112.53
2022-10-22T18:51:06.480Z,119.37
2022-10-22T18:54:22.578Z,106.45
2022-10-22T18:57:27.542Z,84.47
2022-10-22T19:00:31.681Z,100.97
2022-10-22T19:03:35.637Z,94.27
2022-10-22T19:06:42.967Z,95.15
2022-10-22T19:09:48.949Z,90.15
2022-10-22T19:12:53.011Z,83.18
2022-10-22T19:16:03.310Z,77.50
2022-10-22T19:19:08.246Z,81.40
2022-10-22T19:22:11.947Z,75.65
2022-10-22T19:25:15.910Z,76.03
2022-10-22T19:28:19.564Z,73.63
2022-10-22T19:31:25.429Z,71.28
2022-10-22T19:34:28.639Z,62.08
2022-10-22T19:37:34.529Z,67.83
2022-10-22T19:40:37.730Z,64.68
2022-10-22T19:43:45.930Z,62.80
2022-10-22T19:46:48.782Z,65.63
2022-10-22T19:49:52.410Z,66.57
2022-10-22T19:52:55.502Z,64.47
2022-10-22T19:56:00.719Z,68.20
2022-10-22T19:59:06.279Z,64.00
2022-10-22T20:02:16.619Z,63.53
2022-10-22T20:05:20.309Z,61.55
2022-10-22T20:08:24.243Z,60.70
2022-10-22T20:11:29.853Z,64.35
2022-10-22T20:14:34.214Z,59.97
2022-10-22T20:17:38.066Z,60.10
2022-10-22T20:20:42.136Z,54.33
2022-10-22T20:23:44.969Z,57.30
2022-10-22T20:26:48.923Z,54.37
2022-10-22T20:29:52.568Z,51.85
2022-10-22T20:32:56.547Z,47.40
2022-10-22T20:36:06.466Z,52.05
2022-10-22T20:39:14.020Z,48.43
2022-10-22T20:42:17.623Z,44.60
2022-10-22T20:45:20.579Z,48.00
2022-10-22T20:48:30.032Z,49.83
2022-10-22T20:51:35.826Z,49.97
2022-10-22T20:54:42.978Z,45.40
2022-10-22T20:57:47.229Z,47.50
2022-10-22T21:00:51.050Z,45.65
2022-10-22T21:03:55.218Z,47.65
2022-10-22T21:06:59.318Z,46.47
2022-10-22T21:10:03.411Z,47.53
2022-10-22T21:13:07.050Z,49.57
2022-10-22T21:16:12.568Z,49.72
2022-10-22T21:19:16.673Z,50.38
2022-10-22T21:22:20.892Z,54.05
2022-10-22T21:25:24.455Z,50.97
2022-10-22T21:31:34.127Z,48.60
2022-10-22T21:34:39.060Z,44.47
2022-10-22T21:37:43.212Z,40.90
2022-10-22T21:40:47.354Z,34.40
2022-10-22T21:43:52.017Z,33.97
2022-10-22T21:46:56.266Z,33.55
2022-10-22T21:50:00.212Z,35.07
2022-10-22T21:53:03.530Z,35.83
2022-10-22T21:56:09.095Z,34.90
2022-10-22T21:59:13.142Z,30.02
2022-10-22T22:02:17.009Z,30.63
2022-10-22T22:05:22.099Z,33.30
2022-10-22T22:08:26.635Z,33.38
2022-10-22T22:11:30.710Z,33.08
2022-10-22T22:14:34.918Z,36.53
2022-10-22T22:17:38.179Z,39.63
2022-10-22T22:20:42.197Z,35.85
2022-10-22T22:23:48.168Z,38.05
2022-10-22T22:26:52.173Z,42.60
2022-10-22T22:29:55.498Z,41.58
2022-10-22T22:32:59.220Z,43.28
2022-10-22T22:36:02.944Z,41.05
2022-10-22T22:39:08.337Z,32.83
2022-10-22T22:42:11.605Z,24.42
2022-10-22T22:45:15.728Z,26.27
2022-10-22T22:48:19.484Z,24.13
2022-10-22T22:51:23.681Z,19.83
2022-10-22T22:54:27.483Z,16.63
2022-10-22T22:57:31.372Z,15.48
2022-10-22T23:00:35.267Z,14.67
2022-10-22T23:03:39.954Z,12.32
2022-10-22T23:06:43.799Z,9.27
2022-10-22T23:09:47.706Z,9.82
2022-10-22T23:12:50.974Z,9.93
2022-10-22T23:15:54.804Z,10.48
2022-10-22T23:19:01.130Z,11.25
2022-10-22T23:22:05.075Z,11.55
2022-10-22T23:25:08.991Z,12.57
2022-10-22T23:28:13.048Z,12.32
2022-10-22T23:31:18.220Z,16.00
2022-10-22T23:34:25.544Z,16.55
2022-10-22T23:37:29.251Z,18.63
2022-10-22T23:40:33.213Z,17.70
2022-10-22T23:43:38.189Z,26.75
2022-10-22T23:46:43.821Z,33.17
2022-10-22T23:49:47.478Z,38.20
2022-10-22T23:52:52.861Z,40.80
2022-10-22T23:55:56.547Z,40.40
2022-10-22T23:59:00.559Z,35.78
